createdAt,value
2023-06-06T00:01:41.746Z,18.77
2023-06-06T00:04:09.941Z,18.70
2023-06-06T00:06:39.186Z,18.69
2023-06-06T00:09:07.251Z,18.70
2023-06-06T00:11:37.418Z,18.72
2023-06-06T00:14:07.499Z,18.73
2023-06-06T00:16:35.708Z,18.69
2023-06-06T00:19:04.701Z,18.71
2023-06-06T00:21:33.963Z,18.72
2023-06-06T00:24:02.391Z,18.70
2023-06-06T00:26:30.412Z,18.71
2023-06-06T00:28:58.379Z,18.69
2023-06-06T00:31:26.518Z,18.60
2023-06-06T00:33:54.414Z,18.56
2023-06-06T00:36:22.172Z,18.55
2023-06-06T00:38:51.727Z,18.57
2023-06-06T00:41:19.641Z,18.47
2023-06-06T00:43:47.750Z,18.42
2023-06-06T00:46:18.559Z,18.39
2023-06-06T00:48:47.211Z,18.35
2023-06-06T00:51:16.306Z,18.32
2023-06-06T00:53:45.882Z,18.30
2023-06-06T00:56:14.653Z,18.28
2023-06-06T00:58:44.821Z,18.27
2023-06-06T01:01:13.756Z,18.25
2023-06-06T01:03:42.229Z,18.26
2023-06-06T01:06:10.497Z,18.31
2023-06-06T01:08:39.238Z,18.30
2023-06-06T01:11:18.071Z,18.28
2023-06-06T01:13:56.986Z,18.25
2023-06-06T01:16:26.907Z,18.23
2023-06-06T01:18:57.416Z,18.13
2023-06-06T01:21:34.409Z,18.14
2023-06-06T01:24:03.360Z,18.14
2023-06-06T01:26:31.675Z,18.08
2023-06-06T01:28:59.651Z,17.96
2023-06-06T01:31:37.525Z,17.92
2023-06-06T01:34:12.408Z,17.89
2023-06-06T01:36:51.629Z,17.97
2023-06-06T01:39:22.463Z,18.02
2023-06-06T01:41:56.413Z,17.90
2023-06-06T01:44:26.349Z,17.89
2023-06-06T01:46:56.126Z,17.93
2023-06-06T01:49:26.667Z,17.91
2023-06-06T01:51:55.584Z,17.94
2023-06-06T01:54:24.164Z,17.93
2023-06-06T01:56:52.124Z,17.89
2023-06-06T01:59:19.990Z,17.87
2023-06-06T02:01:47.953Z,17.83
2023-06-06T02:04:15.755Z,17.81
2023-06-06T02:06:43.571Z,17.76
2023-06-06T02:09:11.958Z,17.69
2023-06-06T02:11:39.997Z,17.65
2023-06-06T02:14:09.621Z,17.62
2023-06-06T02:16:37.754Z,17.61
2023-06-06T02:19:06.152Z,17.61
2023-06-06T02:21:34.036Z,17.57
2023-06-06T02:24:01.960Z,17.62
2023-06-06T02:26:29.975Z,17.63
2023-06-06T02:28:58.445Z,17.60
2023-06-06T02:31:27.862Z,17.62
2023-06-06T02:33:55.932Z,17.63
2023-06-06T02:36:23.778Z,17.63
2023-06-06T02:38:51.616Z,17.56
2023-06-06T02:41:19.474Z,17.55
2023-06-06T02:43:47.393Z,17.50
2023-06-06T02:46:15.676Z,17.48
2023-06-06T02:48:48.773Z,17.44
2023-06-06T02:51:28.395Z,17.43
2023-06-06T02:53:56.361Z,17.51
2023-06-06T02:56:24.198Z,17.59
2023-06-06T02:58:53.571Z,17.65
2023-06-06T03:01:26.594Z,17.60
2023-06-06T03:03:54.556Z,17.44
2023-06-06T03:06:22.477Z,17.45
2023-06-06T03:08:56.320Z,17.52
2023-06-06T03:11:24.152Z,17.44
2023-06-06T03:13:52.709Z,17.54
2023-06-06T03:16:21.305Z,17.55
2023-06-06T03:18:49.233Z,17.51
2023-06-06T03:21:17.291Z,17.43
2023-06-06T03:23:45.151Z,17.57
2023-06-06T03:26:14.218Z,17.63
2023-06-06T03:28:42.419Z,17.65
2023-06-06T03:31:11.995Z,17.60
2023-06-06T03:33:40.218Z,17.64
2023-06-06T03:36:09.035Z,17.68
2023-06-06T03:38:37.028Z,17.72
2023-06-06T03:41:05.058Z,17.74
2023-06-06T03:43:32.985Z,17.77
2023-06-06T03:46:01.181Z,17.76
2023-06-06T03:48:29.629Z,17.84
2023-06-06T03:50:57.797Z,17.91
2023-06-06T03:53:25.621Z,17.93
2023-06-06T03:55:53.758Z,17.93
2023-06-06T03:58:22.071Z,17.98
2023-06-06T04:00:51.021Z,17.93
2023-06-06T04:03:19.613Z,17.96
2023-06-06T04:05:49.854Z,18.07
2023-06-06T04:08:17.885Z,18.14
2023-06-06T04:10:45.943Z,18.11
2023-06-06T04:13:13.893Z,18.21
2023-06-06T04:15:41.748Z,18.26
2023-06-06T04:18:09.973Z,18.34
2023-06-06T04:20:38.002Z,18.51
2023-06-06T04:23:06.340Z,18.68
2023-06-06T04:25:34.185Z,18.93
2023-06-06T04:28:02.148Z,18.76
2023-06-06T04:30:30.437Z,18.54
2023-06-06T04:32:58.644Z,18.42
2023-06-06T04:35:26.606Z,18.37
2023-06-06T04:37:58.267Z,18.33
2023-06-06T04:40:46.832Z,18.31
2023-06-06T04:43:24.709Z,18.39
2023-06-06T04:45:54.852Z,18.41
2023-06-06T04:48:26.765Z,18.50
2023-06-06T04:50:56.991Z,18.51
2023-06-06T04:53:25.438Z,18.48
2023-06-06T04:55:57.331Z,18.46
2023-06-06T04:58:26.727Z,18.51
2023-06-06T05:00:54.757Z,18.53
2023-06-06T05:03:23.425Z,18.60
2023-06-06T05:05:52.631Z,18.74
2023-06-06T05:08:21.291Z,18.81
2023-06-06T05:10:49.312Z,18.81
2023-06-06T05:13:18.892Z,18.81
2023-06-06T05:15:46.885Z,18.99
2023-06-06T05:18:14.869Z,19.09
2023-06-06T05:20:43.188Z,19.22
2023-06-06T05:23:11.118Z,19.43
2023-06-06T05:25:39.076Z,19.50
2023-06-06T05:28:07.249Z,19.59
2023-06-06T05:30:35.005Z,19.52
2023-06-06T05:33:03.640Z,19.57
2023-06-06T05:35:31.584Z,19.52
2023-06-06T05:37:59.431Z,19.44
2023-06-06T05:40:27.332Z,19.44
2023-06-06T05:42:55.116Z,19.37
2023-06-06T05:45:23.082Z,19.41
2023-06-06T05:47:50.975Z,19.43
2023-06-06T05:50:18.825Z,19.36
2023-06-06T05:52:46.791Z,19.40
2023-06-06T05:55:36.177Z,19.43
2023-06-06T05:58:05.306Z,19.39
2023-06-06T06:00:35.221Z,19.36
2023-06-06T06:03:04.004Z,19.40
2023-06-06T06:05:32.962Z,19.38
2023-06-06T06:08:03.293Z,19.33
2023-06-06T06:10:33.419Z,19.31
2023-06-06T06:13:01.667Z,19.29
2023-06-06T06:15:34.381Z,19.34
2023-06-06T06:18:04.078Z,19.35
2023-06-06T06:20:32.341Z,19.48
2023-06-06T06:23:00.187Z,19.55
2023-06-06T06:25:29.926Z,19.59
2023-06-06T06:27:58.350Z,19.65
2023-06-06T06:30:26.583Z,19.67
2023-06-06T06:32:54.626Z,19.78
2023-06-06T06:35:22.869Z,19.82
2023-06-06T06:37:51.363Z,19.86
2023-06-06T06:40:19.524Z,19.85
2023-06-06T06:42:47.534Z,19.89
2023-06-06T06:45:18.651Z,20.01
2023-06-06T06:47:46.732Z,20.07
2023-06-06T06:50:14.698Z,20.05
2023-06-06T06:52:43.141Z,20.10
2023-06-06T06:55:12.136Z,20.20
2023-06-06T06:57:43.065Z,20.28
2023-06-06T07:00:15.886Z,20.45
2023-06-06T07:02:45.865Z,20.49
2023-06-06T07:05:18.679Z,20.45
2023-06-06T07:07:56.269Z,20.37
2023-06-06T07:10:27.126Z,20.53
2023-06-06T07:12:55.199Z,20.54
2023-06-06T07:15:23.432Z,20.56
2023-06-06T07:17:52.036Z,20.48
2023-06-06T07:20:24.922Z,20.54
2023-06-06T07:22:57.407Z,20.66
2023-06-06T07:25:25.992Z,20.70
2023-06-06T07:27:54.866Z,20.66
2023-06-06T07:30:22.756Z,20.73
2023-06-06T07:32:51.101Z,20.81
2023-06-06T07:35:22.795Z,20.93
2023-06-06T07:37:50.896Z,21.00
2023-06-06T07:40:19.076Z,21.02
2023-06-06T07:42:48.965Z,21.15
2023-06-06T07:45:17.061Z,21.16
2023-06-06T07:47:45.015Z,21.24
2023-06-06T07:50:13.558Z,21.38
2023-06-06T07:52:45.133Z,21.48
2023-06-06T07:55:13.731Z,21.43
2023-06-06T07:57:42.558Z,21.45
2023-06-06T08:00:12.373Z,21.54
2023-06-06T08:02:42.148Z,21.53
2023-06-06T08:05:13.038Z,21.47
2023-06-06T08:07:41.192Z,21.33
2023-06-06T08:10:10.317Z,21.30
2023-06-06T08:12:39.248Z,21.28
2023-06-06T08:15:10.733Z,21.30
2023-06-06T08:17:39.162Z,21.32
2023-06-06T08:20:10.466Z,21.38
2023-06-06T08:22:39.726Z,21.27
2023-06-06T08:25:09.257Z,21.24
2023-06-06T08:27:38.029Z,21.36
2023-06-06T08:30:07.437Z,21.39
2023-06-06T08:32:35.993Z,21.46
2023-06-06T08:35:04.710Z,21.48
2023-06-06T08:37:33.159Z,21.53
2023-06-06T08:40:01.534Z,21.55
2023-06-06T08:42:33.056Z,21.56
2023-06-06T08:45:02.229Z,21.58
2023-06-06T08:47:32.892Z,21.62
2023-06-06T08:50:02.464Z,21.71
2023-06-06T08:52:34.687Z,21.69
2023-06-06T08:55:04.090Z,21.73
2023-06-06T08:57:33.570Z,21.92
2023-06-06T09:00:12.242Z,22.03
2023-06-06T09:02:44.256Z,22.08
2023-06-06T09:05:15.408Z,22.03
2023-06-06T09:07:43.543Z,22.03
2023-06-06T09:10:12.362Z,22.13
2023-06-06T09:12:44.691Z,22.09
2023-06-06T09:15:13.357Z,22.09
2023-06-06T09:17:45.574Z,22.16
2023-06-06T09:20:16.493Z,22.20
2023-06-06T09:22:49.000Z,22.26
2023-06-06T09:25:24.137Z,22.29
2023-06-06T09:28:03.248Z,22.44
2023-06-06T09:30:33.364Z,22.50
2023-06-06T09:33:04.473Z,22.44
2023-06-06T09:35:34.213Z,22.52
2023-06-06T09:38:09.431Z,22.64
2023-06-06T09:40:48.402Z,22.73
2023-06-06T09:43:16.955Z,22.81
2023-06-06T09:46:00.025Z,22.96
2023-06-06T09:48:29.710Z,23.02
2023-06-06T09:50:58.714Z,23.07
2023-06-06T09:53:28.393Z,23.20
2023-06-06T09:56:04.229Z,23.32
2023-06-06T09:58:33.625Z,23.38
2023-06-06T10:01:03.114Z,23.31
2023-06-06T10:03:33.127Z,23.33
2023-06-06T10:06:02.757Z,23.34
2023-06-06T10:08:32.150Z,23.40
2023-06-06T10:11:00.376Z,23.36
2023-06-06T10:13:29.953Z,23.35
2023-06-06T10:16:00.073Z,23.37
2023-06-06T10:18:29.377Z,23.55
2023-06-06T10:20:58.446Z,23.54
2023-06-06T10:23:26.476Z,23.56
2023-06-06T10:25:57.091Z,23.62
2023-06-06T10:28:38.480Z,23.68
2023-06-06T10:31:15.365Z,23.65
2023-06-06T10:33:55.260Z,23.70
2023-06-06T10:36:23.783Z,23.97
2023-06-06T10:39:17.104Z,24.12
2023-06-06T10:41:59.457Z,24.07
2023-06-06T10:44:54.351Z,24.14
2023-06-06T10:47:29.683Z,24.15
2023-06-06T10:50:03.660Z,24.16
2023-06-06T10:52:31.716Z,24.33
2023-06-06T10:54:59.828Z,24.41
2023-06-06T10:57:27.740Z,24.42
2023-06-06T10:59:56.380Z,24.48
2023-06-06T11:02:36.920Z,24.73
2023-06-06T11:05:06.081Z,24.69
2023-06-06T11:07:34.281Z,24.60
2023-06-06T11:10:03.207Z,24.70
2023-06-06T11:12:31.731Z,24.77
2023-06-06T11:15:05.626Z,24.66
2023-06-06T11:17:56.530Z,24.81
2023-06-06T11:20:33.930Z,24.81
2023-06-06T11:23:04.805Z,24.88
2023-06-06T11:25:38.207Z,24.96
2023-06-06T11:28:06.646Z,25.02
2023-06-06T11:30:39.555Z,25.00
2023-06-06T11:33:13.324Z,25.13
2023-06-06T11:35:41.610Z,25.29
2023-06-06T11:38:09.891Z,25.56
2023-06-06T11:40:38.063Z,25.55
2023-06-06T11:43:06.475Z,25.57
2023-06-06T11:45:34.507Z,25.63
2023-06-06T11:48:18.215Z,25.79
2023-06-06T11:50:47.105Z,25.70
2023-06-06T11:53:32.058Z,25.69
2023-06-06T11:56:01.143Z,25.68
2023-06-06T11:58:31.143Z,25.68
2023-06-06T12:01:01.373Z,25.52
2023-06-06T12:03:29.897Z,25.47
2023-06-06T12:06:06.124Z,25.42
2023-06-06T12:08:39.169Z,25.33
2023-06-06T12:11:34.380Z,25.30
2023-06-06T12:14:12.306Z,25.30
2023-06-06T12:16:40.199Z,25.30
2023-06-06T12:19:18.262Z,25.23
2023-06-06T12:21:51.989Z,25.09
2023-06-06T12:24:25.047Z,25.31
2023-06-06T12:26:57.485Z,25.70
2023-06-06T12:29:27.541Z,25.94
2023-06-06T12:32:14.700Z,25.91
2023-06-06T12:35:03.842Z,25.96
2023-06-06T12:37:42.483Z,25.89
2023-06-06T12:40:24.395Z,25.98
2023-06-06T12:43:04.529Z,26.03
2023-06-06T12:45:35.880Z,25.97
2023-06-06T12:48:04.647Z,26.02
2023-06-06T12:50:32.912Z,25.87
2023-06-06T12:53:01.540Z,25.97
2023-06-06T12:55:29.783Z,25.81
2023-06-06T12:57:57.643Z,25.70
2023-06-06T13:00:25.824Z,25.64
2023-06-06T13:02:53.915Z,25.65
2023-06-06T13:05:22.820Z,25.59
2023-06-06T13:07:50.983Z,25.66
2023-06-06T13:10:19.053Z,25.79
2023-06-06T13:12:46.992Z,25.83
2023-06-06T13:15:15.238Z,25.94
2023-06-06T13:17:43.224Z,25.83
2023-06-06T13:20:12.829Z,25.81
2023-06-06T13:22:41.573Z,26.01
2023-06-06T13:25:10.110Z,26.08
2023-06-06T13:27:38.088Z,26.12
2023-06-06T13:30:09.925Z,26.11
2023-06-06T13:32:38.187Z,26.03
2023-06-06T13:35:06.946Z,26.01
2023-06-06T13:37:34.854Z,26.00
2023-06-06T13:40:03.443Z,26.08
2023-06-06T13:42:31.997Z,26.24
2023-06-06T13:45:00.058Z,26.32
2023-06-06T13:47:31.078Z,26.33
2023-06-06T13:49:59.360Z,26.19
2023-06-06T13:52:27.552Z,26.11
2023-06-06T13:54:55.647Z,26.12
2023-06-06T13:57:29.850Z,26.14
2023-06-06T13:59:58.171Z,26.15
2023-06-06T14:02:26.220Z,26.31
2023-06-06T14:04:54.435Z,26.40
2023-06-06T14:07:22.593Z,26.27
2023-06-06T14:09:50.587Z,26.22
2023-06-06T14:12:19.202Z,26.15
2023-06-06T14:14:48.585Z,26.08
2023-06-06T14:17:17.915Z,26.17
2023-06-06T14:19:52.069Z,26.31
2023-06-06T14:22:31.071Z,26.24
2023-06-06T14:24:59.494Z,26.23
2023-06-06T14:27:31.758Z,26.21
2023-06-06T14:30:00.534Z,26.21
2023-06-06T14:32:32.217Z,26.23
2023-06-06T14:35:07.596Z,26.11
2023-06-06T14:37:35.976Z,26.05
2023-06-06T14:40:07.017Z,26.18
2023-06-06T14:42:35.169Z,26.44
2023-06-06T14:45:03.457Z,26.48
2023-06-06T14:47:31.565Z,26.48
2023-06-06T14:49:59.553Z,26.49
2023-06-06T14:52:27.587Z,26.45
2023-06-06T14:54:55.430Z,26.47
2023-06-06T14:57:23.337Z,26.53
2023-06-06T14:59:54.872Z,26.74
2023-06-06T15:02:24.589Z,26.70
2023-06-06T15:04:52.668Z,26.54
2023-06-06T15:07:21.603Z,26.44
2023-06-06T15:09:49.461Z,26.37
2023-06-06T15:12:17.778Z,26.47
2023-06-06T15:14:46.096Z,26.49
2023-06-06T15:17:14.010Z,26.38
2023-06-06T15:19:42.748Z,26.45
2023-06-06T15:22:12.116Z,26.37
2023-06-06T15:24:40.396Z,26.25
2023-06-06T15:27:08.698Z,26.05
2023-06-06T15:29:43.504Z,26.02
2023-06-06T15:32:12.076Z,26.05
2023-06-06T15:34:41.056Z,26.17
2023-06-06T15:37:09.810Z,26.22
2023-06-06T15:39:42.145Z,26.14
2023-06-06T15:42:11.794Z,26.13
2023-06-06T15:44:40.063Z,26.19
2023-06-06T15:47:08.502Z,26.32
2023-06-06T15:49:36.574Z,26.33
2023-06-06T15:52:04.940Z,26.24
2023-06-06T15:54:32.930Z,26.26
2023-06-06T15:57:01.007Z,26.35
2023-06-06T15:59:29.671Z,26.34
2023-06-06T16:01:58.068Z,26.37
2023-06-06T16:04:27.140Z,26.33
2023-06-06T16:06:55.234Z,26.16
2023-06-06T16:09:23.206Z,26.18
2023-06-06T16:11:51.317Z,26.10
2023-06-06T16:14:19.176Z,26.03
2023-06-06T16:16:47.439Z,26.04
2023-06-06T16:19:15.746Z,25.93
2023-06-06T16:21:43.997Z,25.82
2023-06-06T16:24:12.246Z,25.82
2023-06-06T16:26:40.261Z,25.79
2023-06-06T16:29:08.394Z,25.59
2023-06-06T16:31:36.701Z,25.50
2023-06-06T16:34:04.630Z,25.46
2023-06-06T16:36:33.113Z,25.43
2023-06-06T16:39:01.235Z,25.46
2023-06-06T16:41:30.073Z,25.48
2023-06-06T16:43:58.057Z,25.50
2023-06-06T16:46:26.247Z,25.50
2023-06-06T16:48:54.322Z,25.52
2023-06-06T16:51:22.788Z,25.55
2023-06-06T16:53:50.788Z,25.54
2023-06-06T16:56:19.890Z,25.55
2023-06-06T16:58:48.920Z,25.51
2023-06-06T17:01:19.080Z,25.54
2023-06-06T17:03:47.141Z,25.54
2023-06-06T17:06:15.035Z,25.55
2023-06-06T17:08:43.710Z,25.47
2023-06-06T17:11:13.718Z,25.41
2023-06-06T17:13:41.803Z,25.50
2023-06-06T17:16:09.815Z,25.50
2023-06-06T17:18:37.733Z,25.50
2023-06-06T17:21:10.186Z,25.52
2023-06-06T17:23:38.588Z,25.45
2023-06-06T17:26:06.619Z,25.45
2023-06-06T17:28:34.494Z,25.44
2023-06-06T17:31:02.689Z,25.40
2023-06-06T17:33:31.202Z,25.38
2023-06-06T17:35:59.122Z,25.41
2023-06-06T17:38:27.402Z,25.40
2023-06-06T17:40:55.299Z,25.35
2023-06-06T17:43:23.579Z,25.36
2023-06-06T17:45:51.832Z,25.38
2023-06-06T17:48:19.731Z,25.42
2023-06-06T17:50:47.761Z,25.40
2023-06-06T17:53:16.401Z,25.32
2023-06-06T17:55:44.400Z,25.28
2023-06-06T17:58:12.452Z,25.22
2023-06-06T18:00:40.773Z,25.18
2023-06-06T18:03:09.340Z,25.20
2023-06-06T18:05:37.689Z,25.21
2023-06-06T18:08:07.931Z,25.13
2023-06-06T18:10:37.369Z,25.09
2023-06-06T18:13:06.209Z,25.08
2023-06-06T18:15:34.218Z,25.09
2023-06-06T18:18:02.704Z,25.04
2023-06-06T18:20:30.859Z,24.99
2023-06-06T18:22:59.184Z,24.96
2023-06-06T18:25:28.326Z,24.89
2023-06-06T18:27:56.874Z,24.86
2023-06-06T18:30:25.022Z,24.83
2023-06-06T18:32:53.051Z,24.79
2023-06-06T18:35:21.457Z,24.74
2023-06-06T18:37:49.482Z,24.70
2023-06-06T18:40:21.083Z,24.67
2023-06-06T18:42:51.203Z,24.61
2023-06-06T18:45:19.444Z,24.52
2023-06-06T18:47:48.588Z,24.42
2023-06-06T18:50:16.953Z,24.34
2023-06-06T18:52:45.100Z,24.24
2023-06-06T18:55:14.183Z,24.12
2023-06-06T18:57:42.291Z,24.05
2023-06-06T19:00:13.499Z,24.02
2023-06-06T19:02:43.334Z,24.02
2023-06-06T19:05:13.573Z,24.02
2023-06-06T19:07:43.469Z,24.03
2023-06-06T19:10:12.314Z,23.97
2023-06-06T19:12:47.882Z,23.95
2023-06-06T19:15:18.516Z,23.92
2023-06-06T19:17:46.983Z,23.89
2023-06-06T19:20:18.885Z,23.83
2023-06-06T19:22:47.640Z,23.80
2023-06-06T19:25:15.958Z,23.78
2023-06-06T19:27:44.857Z,23.80
2023-06-06T19:30:16.739Z,23.85
2023-06-06T19:32:45.002Z,23.85
2023-06-06T19:35:13.245Z,23.79
2023-06-06T19:37:42.354Z,23.76
2023-06-06T19:40:28.595Z,23.67
2023-06-06T19:42:57.854Z,23.57
2023-06-06T19:45:25.917Z,23.48
2023-06-06T19:47:55.318Z,23.43
2023-06-06T19:50:23.993Z,23.41
2023-06-06T19:52:51.758Z,23.40
2023-06-06T19:55:19.955Z,23.39
2023-06-06T19:57:47.928Z,23.32
2023-06-06T20:00:16.506Z,23.25
2023-06-06T20:02:45.727Z,23.23
2023-06-06T20:05:14.039Z,23.17
2023-06-06T20:07:43.351Z,23.12
2023-06-06T20:10:12.650Z,23.10
2023-06-06T20:12:41.265Z,23.05
2023-06-06T20:15:10.032Z,23.03
2023-06-06T20:17:39.963Z,23.01
2023-06-06T20:20:11.819Z,22.98
2023-06-06T20:22:40.677Z,22.97
2023-06-06T20:25:09.736Z,22.91
2023-06-06T20:27:37.759Z,22.88
2023-06-06T20:30:06.686Z,22.84
2023-06-06T20:32:34.893Z,22.79
2023-06-06T20:35:04.226Z,22.73
2023-06-06T20:37:32.617Z,22.68
2023-06-06T20:40:19.363Z,22.61
2023-06-06T20:42:48.073Z,22.51
2023-06-06T20:45:16.514Z,22.52
2023-06-06T20:47:48.954Z,22.55
2023-06-06T20:50:17.141Z,22.55
2023-06-06T20:52:45.209Z,22.56
2023-06-06T20:55:13.346Z,22.56
2023-06-06T20:57:41.912Z,22.53
2023-06-06T21:00:11.215Z,22.51
2023-06-06T21:02:39.390Z,22.51
2023-06-06T21:05:09.397Z,22.48
2023-06-06T21:07:37.860Z,22.47
2023-06-06T21:10:07.223Z,22.48
2023-06-06T21:12:36.442Z,22.47
2023-06-06T21:15:05.232Z,22.47
2023-06-06T21:17:33.280Z,22.51
2023-06-06T21:20:01.991Z,22.51
2023-06-06T21:22:30.258Z,22.49
2023-06-06T21:24:58.285Z,22.48
2023-06-06T21:27:26.128Z,22.47
2023-06-06T21:29:54.019Z,22.43
2023-06-06T21:32:22.460Z,22.35
2023-06-06T21:34:51.302Z,22.32
2023-06-06T21:37:22.301Z,22.29
2023-06-06T21:39:50.407Z,22.30
2023-06-06T21:42:18.247Z,22.28
2023-06-06T21:44:46.145Z,22.25
2023-06-06T21:47:13.943Z,22.27
2023-06-06T21:49:43.985Z,22.27
2023-06-06T21:52:11.913Z,22.25
2023-06-06T21:54:39.817Z,22.21
2023-06-06T21:57:07.781Z,22.18
2023-06-06T21:59:36.224Z,22.16
2023-06-06T22:02:04.426Z,22.13
2023-06-06T22:04:32.520Z,22.12
2023-06-06T22:07:03.985Z,22.11
2023-06-06T22:09:32.148Z,22.11
2023-06-06T22:12:00.867Z,22.09
2023-06-06T22:14:30.875Z,22.08
2023-06-06T22:16:59.170Z,22.07
2023-06-06T22:19:27.254Z,22.08
2023-06-06T22:21:55.503Z,22.08
2023-06-06T22:24:23.645Z,22.03
2023-06-06T22:26:53.113Z,22.00
2023-06-06T22:29:21.219Z,21.96
2023-06-06T22:31:51.418Z,21.94
2023-06-06T22:34:20.419Z,21.90
2023-06-06T22:36:48.556Z,21.81
2023-06-06T22:39:16.818Z,21.78
2023-06-06T22:41:44.682Z,21.76
2023-06-06T22:44:12.581Z,21.71
2023-06-06T22:46:40.837Z,21.65
2023-06-06T22:49:08.941Z,21.63
2023-06-06T22:51:37.402Z,21.62
2023-06-06T22:54:05.857Z,21.61
2023-06-06T22:56:33.945Z,21.48
2023-06-06T22:59:02.014Z,21.43
2023-06-06T23:01:30.034Z,21.42
2023-06-06T23:04:01.042Z,21.42
2023-06-06T23:06:29.481Z,21.38
2023-06-06T23:08:59.953Z,21.38
2023-06-06T23:11:27.935Z,21.39
2023-06-06T23:13:56.334Z,21.40
2023-06-06T23:16:24.670Z,21.42
2023-06-06T23:18:52.613Z,21.39
2023-06-06T23:21:22.156Z,21.37
2023-06-06T23:23:50.239Z,21.31
2023-06-06T23:26:18.254Z,21.24
2023-06-06T23:28:46.201Z,21.12
2023-06-06T23:31:14.080Z,21.03
2023-06-06T23:33:42.165Z,20.97
2023-06-06T23:36:09.966Z,20.93
2023-06-06T23:38:38.186Z,20.86
2023-06-06T23:41:06.455Z,20.77
2023-06-06T23:43:35.180Z,20.66
2023-06-06T23:46:03.624Z,20.64
2023-06-06T23:48:31.671Z,20.63
2023-06-06T23:50:59.627Z,20.62
2023-06-06T23:53:27.569Z,20.62
2023-06-06T23:55:55.842Z,20.60
2023-06-06T23:58:23.650Z,20.56
